createdAt,value
2022-09-12T00:00:44.750Z,98899.34
2022-09-12T00:03:11.486Z,98895.50
2022-09-12T00:05:44.236Z,98885.53
2022-09-12T00:08:12.013Z,98886.03
2022-09-12T00:10:43.911Z,98884.25
2022-09-12T00:13:11.947Z,98887.66
2022-09-12T00:15:44.207Z,98890.22
2022-09-12T00:18:15.783Z,98891.34
2022-09-12T00:20:47.212Z,98894.69
2022-09-12T00:23:15.114Z,98879.13
2022-09-12T00:25:48.613Z,98891.97
2022-09-12T00:28:17.887Z,98890.69
2022-09-12T00:30:48.891Z,98890.38
2022-09-12T00:33:17.636Z,98893.91
2022-09-12T00:35:50.392Z,98887.97
2022-09-12T00:38:17.520Z,98883.16
2022-09-12T00:40:45.219Z,98880.59
2022-09-12T00:43:30.882Z,98878.81
2022-09-12T00:46:02.086Z,98881.84
2022-09-12T00:48:42.081Z,98873.69
2022-09-12T00:51:10.413Z,98875.28
2022-09-12T00:53:41.201Z,98873.53
2022-09-12T00:56:08.694Z,98868.72
2022-09-12T00:58:50.447Z,98858.78
2022-09-12T01:01:18.792Z,98863.41
2022-09-12T01:03:48.652Z,98862.16
2022-09-12T01:06:43.085Z,98855.56
2022-09-12T01:09:20.294Z,98848.97
2022-09-12T01:11:49.265Z,98849.31
2022-09-12T01:14:19.451Z,98847.72
2022-09-12T01:16:49.953Z,98851.22
2022-09-12T01:19:54.606Z,98838.06
2022-09-12T01:23:00.746Z,98844.97
2022-09-12T01:25:36.415Z,98838.41
2022-09-12T01:28:37.952Z,98837.28
2022-09-12T01:31:35.844Z,98841.25
2022-09-12T01:34:21.196Z,98830.34
2022-09-12T01:37:45.659Z,98836.63
2022-09-12T01:40:40.639Z,98833.88
2022-09-12T01:43:45.746Z,98830.19
2022-09-12T01:46:29.494Z,98824.91
2022-09-12T01:49:15.741Z,98825.38
2022-09-12T01:52:18.482Z,98821.53
2022-09-12T01:54:57.789Z,98824.09
2022-09-12T01:57:41.291Z,98821.38
2022-09-12T02:00:12.709Z,98817.84
2022-09-12T02:03:02.930Z,98815.78
2022-09-12T02:05:34.886Z,98811.28
2022-09-12T02:08:29.657Z,98815.91
2022-09-12T02:11:06.562Z,98814.63
2022-09-12T02:14:25.862Z,98813.69
2022-09-12T02:17:02.277Z,98812.53
2022-09-12T02:19:40.853Z,98797.94
2022-09-12T02:22:17.197Z,98807.72
2022-09-12T02:24:49.472Z,98795.06
2022-09-12T02:27:23.989Z,98801.97
2022-09-12T02:29:52.024Z,98807.06
2022-09-12T02:32:48.307Z,98796.63
2022-09-12T02:35:49.141Z,98789.75
2022-09-12T02:38:40.418Z,98784.16
2022-09-12T02:41:07.652Z,98784.16
2022-09-12T02:43:34.768Z,98785.44
2022-09-12T02:46:01.885Z,98790.88
2022-09-12T02:48:37.195Z,98794.38
2022-09-12T02:51:04.089Z,98793.41
2022-09-12T02:53:31.717Z,98788.78
2022-09-12T02:55:58.930Z,98788.28
2022-09-12T02:58:31.941Z,98785.56
2022-09-12T03:01:17.544Z,98788.56
2022-09-12T03:04:32.734Z,98784.72
2022-09-12T03:07:37.753Z,98783.44
2022-09-12T03:10:28.881Z,98793.03
2022-09-12T03:13:07.531Z,98789.19
2022-09-12T03:16:10.215Z,98791.09
2022-09-12T03:19:33.790Z,98789.19
2022-09-12T03:22:27.597Z,98793.69
2022-09-12T03:25:19.933Z,98787.88
2022-09-12T03:28:07.419Z,98784.53
2022-09-12T03:30:44.698Z,98785.34
2022-09-12T03:33:13.869Z,98788.38
2022-09-12T03:35:41.196Z,98784.81
2022-09-12T03:38:08.580Z,98792.50
2022-09-12T03:40:37.626Z,98787.06
2022-09-12T03:43:07.895Z,98786.75
2022-09-12T03:45:36.647Z,98783.22
2022-09-12T03:48:05.021Z,98783.22
2022-09-12T03:50:32.033Z,98776.50
2022-09-12T03:53:03.655Z,98774.75
2022-09-12T03:55:31.011Z,98786.91
2022-09-12T03:57:57.796Z,98779.88
2022-09-12T04:00:24.898Z,98790.75
2022-09-12T04:02:57.208Z,98790.56
2022-09-12T04:05:25.759Z,98783.38
2022-09-12T04:07:52.951Z,98784.97
2022-09-12T04:10:19.875Z,98781.97
2022-09-12T04:12:46.915Z,98788.38
2022-09-12T04:15:14.239Z,98780.53
2022-09-12T04:17:41.076Z,98781.47
2022-09-12T04:20:08.274Z,98789.16
2022-09-12T04:22:35.256Z,98784.81
2022-09-12T04:25:02.694Z,98789.28
2022-09-12T04:27:29.454Z,98784.34
2022-09-12T04:29:57.053Z,98781.63
2022-09-12T04:32:24.004Z,98789.00
2022-09-12T04:34:52.413Z,98780.97
2022-09-12T04:37:19.538Z,98784.97
2022-09-12T04:39:49.066Z,98779.31
2022-09-12T04:42:16.690Z,98778.53
2022-09-12T04:44:43.893Z,98769.75
2022-09-12T04:47:10.837Z,98762.38
2022-09-12T04:49:37.842Z,98759.81
2022-09-12T04:52:05.042Z,98756.13
2022-09-12T04:54:31.999Z,98759.06
2022-09-12T04:56:59.513Z,98761.31
2022-09-12T04:59:26.511Z,98758.13
2022-09-12T05:01:53.257Z,98762.25
2022-09-12T05:04:20.480Z,98764.50
2022-09-12T05:06:47.456Z,98761.16
2022-09-12T05:09:14.802Z,98762.25
2022-09-12T05:12:03.729Z,98768.03
2022-09-12T05:14:32.586Z,98768.00
2022-09-12T05:17:01.411Z,98774.91
2022-09-12T05:19:31.160Z,98769.94
2022-09-12T05:21:59.027Z,98769.59
2022-09-12T05:24:26.145Z,98777.97
2022-09-12T05:26:53.382Z,98782.94
2022-09-12T05:29:20.156Z,98776.84
2022-09-12T05:31:51.095Z,98776.56
2022-09-12T05:34:19.232Z,98774.78
2022-09-12T05:36:45.968Z,98771.75
2022-09-12T05:39:12.753Z,98787.81
2022-09-12T05:41:39.583Z,98782.63
2022-09-12T05:44:12.023Z,98786.81
2022-09-12T05:46:41.974Z,98782.47
2022-09-12T05:49:12.517Z,98789.88
2022-09-12T05:51:45.597Z,98783.16
2022-09-12T05:54:19.385Z,98787.00
2022-09-12T05:56:47.989Z,98785.41
2022-09-12T05:59:19.821Z,98785.09
2022-09-12T06:01:48.683Z,98781.09
2022-09-12T06:04:16.519Z,98775.00
2022-09-12T06:06:46.077Z,98781.56
2022-09-12T06:09:16.578Z,98779.50
2022-09-12T06:11:44.373Z,98781.25
2022-09-12T06:14:14.620Z,98788.13
2022-09-12T06:16:41.791Z,98788.28
2022-09-12T06:19:16.311Z,98780.00
2022-09-12T06:21:45.551Z,98781.91
2022-09-12T06:24:12.781Z,98782.25
2022-09-12T06:26:39.673Z,98781.94
2022-09-12T06:29:07.539Z,98775.66
2022-09-12T06:31:38.054Z,98779.38
2022-09-12T06:34:12.494Z,98778.88
2022-09-12T06:36:46.525Z,98776.66
2022-09-12T06:39:21.388Z,98771.84
2022-09-12T06:41:50.780Z,98779.53
2022-09-12T06:44:21.842Z,98776.47
2022-09-12T06:46:49.696Z,98772.44
2022-09-12T06:49:17.694Z,98775.97
2022-09-12T06:51:44.710Z,98771.00
2022-09-12T06:54:17.126Z,98772.25
2022-09-12T06:56:44.800Z,98772.38
2022-09-12T06:59:12.141Z,98767.50
2022-09-12T07:01:40.041Z,98772.16
2022-09-12T07:04:07.069Z,98773.75
2022-09-12T07:06:41.229Z,98776.59
2022-09-12T07:09:13.338Z,98768.84
2022-09-12T07:11:42.176Z,98771.97
2022-09-12T07:14:13.842Z,98769.88
2022-09-12T07:16:41.738Z,98768.06
2022-09-12T07:19:09.887Z,98759.22
2022-09-12T07:21:39.789Z,98752.09
2022-09-12T07:24:09.425Z,98758.63
2022-09-12T07:26:36.878Z,98755.03
2022-09-12T07:29:32.276Z,98758.50
2022-09-12T07:31:50.414Z,98754.69
2022-09-12T07:34:17.577Z,98769.25
2022-09-12T07:36:44.435Z,98755.31
2022-09-12T07:39:11.287Z,98758.09
2022-09-12T07:41:38.190Z,98748.66
2022-09-12T07:44:06.736Z,98754.97
2022-09-12T07:46:34.018Z,98761.25
2022-09-12T07:49:01.498Z,98760.25
2022-09-12T07:51:30.502Z,98759.25
2022-09-12T07:53:57.897Z,98756.75
2022-09-12T07:56:30.500Z,98754.25
2022-09-12T07:58:57.767Z,98744.84
2022-09-12T08:01:24.826Z,98747.50
2022-09-12T08:03:58.949Z,98753.25
2022-09-12T08:06:28.355Z,98746.34
2022-09-12T08:08:57.700Z,98749.66
2022-09-12T08:11:27.954Z,98751.09
2022-09-12T08:13:57.725Z,98754.91
2022-09-12T08:16:31.164Z,98757.72
2022-09-12T08:18:59.894Z,98755.03
2022-09-12T08:21:31.049Z,98756.22
2022-09-12T08:24:02.057Z,98754.13
2022-09-12T08:26:30.504Z,98752.19
2022-09-12T08:28:57.516Z,98761.97
2022-09-12T08:31:26.990Z,98756.34
2022-09-12T08:33:57.649Z,98762.53
2022-09-12T08:36:29.538Z,98752.09
2022-09-12T08:39:04.970Z,98756.81
2022-09-12T08:41:40.619Z,98769.72
2022-09-12T08:44:58.353Z,98757.19
2022-09-12T08:47:42.237Z,98762.88
2022-09-12T08:50:11.785Z,98752.94
2022-09-12T08:53:04.675Z,98755.25
2022-09-12T08:55:44.119Z,98753.38
2022-09-12T08:58:20.787Z,98751.09
2022-09-12T09:01:24.128Z,98758.72
2022-09-12T09:04:06.971Z,98759.22
2022-09-12T09:06:58.481Z,98755.91
2022-09-12T09:09:59.584Z,98755.94
2022-09-12T09:12:54.203Z,98758.75
2022-09-12T09:15:51.351Z,98761.97
2022-09-12T09:18:29.193Z,98755.69
2022-09-12T09:21:31.025Z,98758.31
2022-09-12T09:24:14.074Z,98764.25
2022-09-12T09:27:01.739Z,98759.19
2022-09-12T09:29:41.314Z,98754.06
2022-09-12T09:32:38.065Z,98757.41
2022-09-12T09:35:28.319Z,98754.50
2022-09-12T09:38:10.771Z,98748.44
2022-09-12T09:40:54.300Z,98752.88
2022-09-12T09:43:25.345Z,98760.09
2022-09-12T09:45:52.970Z,98757.72
2022-09-12T09:48:26.630Z,98763.34
2022-09-12T09:50:53.600Z,98763.75
2022-09-12T09:53:52.994Z,98756.97
2022-09-12T09:56:40.157Z,98755.38
2022-09-12T09:59:25.565Z,98749.88
2022-09-12T10:02:03.886Z,98749.88
2022-09-12T10:04:41.571Z,98751.09
2022-09-12T10:07:21.617Z,98746.31
2022-09-12T10:10:18.440Z,98736.78
2022-09-12T10:12:45.919Z,98737.56
2022-09-12T10:15:29.415Z,98740.72
2022-09-12T10:17:57.012Z,98739.09
2022-09-12T10:20:45.143Z,98736.66
2022-09-12T10:23:37.309Z,98738.91
2022-09-12T10:26:12.345Z,98736.66
2022-09-12T10:28:51.922Z,98734.25
2022-09-12T10:31:29.606Z,98730.63
2022-09-12T10:34:00.770Z,98723.16
2022-09-12T10:36:39.610Z,98725.81
2022-09-12T10:39:13.870Z,98727.72
2022-09-12T10:41:41.532Z,98720.06
2022-09-12T10:44:26.250Z,98718.78
2022-09-12T10:46:54.536Z,98720.56
2022-09-12T10:49:24.625Z,98719.44
2022-09-12T10:51:54.380Z,98713.97
2022-09-12T10:54:28.469Z,98704.41
2022-09-12T10:57:24.008Z,98702.31
2022-09-12T11:00:17.198Z,98703.75
2022-09-12T11:02:51.746Z,98696.63
2022-09-12T11:05:36.679Z,98695.53
2022-09-12T11:08:49.174Z,98690.41
2022-09-12T11:12:03.297Z,98696.28
2022-09-12T11:15:11.128Z,98689.97
2022-09-12T11:17:50.403Z,98682.25
2022-09-12T11:20:43.675Z,98673.59
2022-09-12T11:23:31.539Z,98682.34
2022-09-12T11:26:45.140Z,98677.97
2022-09-12T11:29:45.637Z,98675.91
2022-09-12T11:32:39.279Z,98676.19
2022-09-12T11:35:31.359Z,98694.00
2022-09-12T11:38:28.499Z,98675.88
2022-09-12T11:41:09.767Z,98685.22
2022-09-12T11:44:03.570Z,98669.66
2022-09-12T11:46:37.662Z,98660.13
2022-09-12T11:49:16.951Z,98656.59
2022-09-12T11:51:59.440Z,98658.88
2022-09-12T11:54:30.425Z,98659.22
2022-09-12T11:57:29.470Z,98669.44
2022-09-12T12:00:09.453Z,98659.22
2022-09-12T12:03:14.745Z,98648.88
2022-09-12T12:06:21.363Z,98646.28
2022-09-12T12:08:50.553Z,98641.09
2022-09-12T12:11:40.185Z,98630.78
2022-09-12T12:14:18.295Z,98642.25
2022-09-12T12:16:46.616Z,98642.44
2022-09-12T12:19:16.054Z,98636.69
2022-09-12T12:21:51.262Z,98634.81
2022-09-12T12:24:26.155Z,98633.03
2022-09-12T12:27:22.324Z,98635.25
2022-09-12T12:29:49.120Z,98625.78
2022-09-12T12:32:22.170Z,98622.22
2022-09-12T12:34:49.038Z,98631.03
2022-09-12T12:37:41.848Z,98624.91
2022-09-12T12:40:22.769Z,98609.31
2022-09-12T12:42:49.930Z,98597.59
2022-09-12T12:45:28.926Z,98609.91
2022-09-12T12:48:05.094Z,98610.81
2022-09-12T12:50:35.093Z,98601.47
2022-09-12T12:53:19.017Z,98601.56
2022-09-12T12:55:53.571Z,98591.09
2022-09-12T12:58:39.521Z,98593.72
2022-09-12T13:01:18.618Z,98592.75
2022-09-12T13:04:05.593Z,98588.06
2022-09-12T13:06:41.078Z,98587.38
2022-09-12T13:09:32.988Z,98590.94
2022-09-12T13:12:12.738Z,98581.25
2022-09-12T13:14:59.299Z,98577.75
2022-09-12T13:17:41.408Z,98574.28
2022-09-12T13:20:28.921Z,98568.69
2022-09-12T13:22:58.206Z,98569.44
2022-09-12T13:25:31.336Z,98557.25
2022-09-12T13:28:11.256Z,98563.50
2022-09-12T13:30:44.111Z,98561.63
2022-09-12T13:33:38.936Z,98559.13
2022-09-12T13:36:42.637Z,98554.97
2022-09-12T13:39:38.291Z,98544.28
2022-09-12T13:42:35.622Z,98539.28
2022-09-12T13:45:23.492Z,98556.09
2022-09-12T13:48:10.302Z,98542.28
2022-09-12T13:50:51.369Z,98544.22
2022-09-12T13:53:23.735Z,98543.97
2022-09-12T13:55:57.773Z,98534.66
2022-09-12T13:58:37.079Z,98533.66
2022-09-12T14:01:09.938Z,98532.28
2022-09-12T14:04:01.630Z,98513.97
2022-09-12T14:06:28.857Z,98512.44
2022-09-12T14:09:01.398Z,98517.06
2022-09-12T14:11:30.877Z,98511.84
2022-09-12T14:14:00.331Z,98505.38
2022-09-12T14:16:40.285Z,98512.06
2022-09-12T14:19:10.151Z,98508.44
2022-09-12T14:21:38.011Z,98502.53
2022-09-12T14:24:08.534Z,98514.50
2022-09-12T14:26:40.550Z,98502.91
2022-09-12T14:29:08.627Z,98502.88
2022-09-12T14:31:38.439Z,98504.13
2022-09-12T14:34:14.315Z,98497.84
2022-09-12T14:36:55.255Z,98490.56
2022-09-12T14:39:45.063Z,98498.34
2022-09-12T14:42:21.140Z,98486.66
2022-09-12T14:45:17.296Z,98486.06
2022-09-12T14:47:51.197Z,98479.91
2022-09-12T14:50:26.411Z,98479.63
2022-09-12T14:53:31.411Z,98482.47
2022-09-12T14:56:11.731Z,98473.50
2022-09-12T14:58:42.553Z,98472.44
2022-09-12T15:01:09.347Z,98468.78
2022-09-12T15:03:40.981Z,98466.47
2022-09-12T15:06:28.439Z,98465.94
2022-09-12T15:09:00.259Z,98452.38
2022-09-12T15:11:27.464Z,98450.41
2022-09-12T15:13:54.497Z,98448.84
2022-09-12T15:16:22.796Z,98454.88
2022-09-12T15:18:49.934Z,98450.66
2022-09-12T15:21:20.437Z,98451.59
2022-09-12T15:23:52.390Z,98447.53
2022-09-12T15:26:23.247Z,98446.97
2022-09-12T15:28:50.818Z,98441.56
2022-09-12T15:31:29.373Z,98444.66
2022-09-12T15:33:59.027Z,98440.28
2022-09-12T15:36:26.627Z,98449.06
2022-09-12T15:38:53.588Z,98443.38
2022-09-12T15:41:37.359Z,98431.03
2022-09-12T15:44:06.680Z,98429.41
2022-09-12T15:46:36.785Z,98427.00
2022-09-12T15:49:03.648Z,98427.78
2022-09-12T15:51:30.372Z,98433.91
2022-09-12T15:53:57.132Z,98422.06
2022-09-12T15:56:23.923Z,98429.81
2022-09-12T15:58:59.583Z,98420.03
2022-09-12T16:01:29.723Z,98430.31
2022-09-12T16:03:57.296Z,98422.34
2022-09-12T16:06:24.433Z,98428.38
2022-09-12T16:08:51.219Z,98422.53
2022-09-12T16:11:27.180Z,98413.38
2022-09-12T16:13:56.583Z,98411.88
2022-09-12T16:16:23.475Z,98419.16
2022-09-12T16:18:50.391Z,98418.41
2022-09-12T16:21:17.259Z,98415.31
2022-09-12T16:23:46.216Z,98414.94
2022-09-12T16:26:13.353Z,98410.97
2022-09-12T16:28:40.264Z,98409.75
2022-09-12T16:31:10.393Z,98404.66
2022-09-12T16:33:39.529Z,98403.13
2022-09-12T16:36:13.709Z,98405.91
2022-09-12T16:38:43.089Z,98402.78
2022-09-12T16:41:11.024Z,98400.91
2022-09-12T16:43:38.188Z,98400.59
2022-09-12T16:46:12.617Z,98405.09
2022-09-12T16:48:52.160Z,98402.41
2022-09-12T16:51:27.175Z,98409.53
2022-09-12T16:53:55.833Z,98402.06
2022-09-12T16:56:23.626Z,98400.50
2022-09-12T16:58:51.536Z,98396.97
2022-09-12T17:01:25.693Z,98401.81
2022-09-12T17:03:56.423Z,98403.44
2022-09-12T17:06:25.129Z,98398.28
2022-09-12T17:08:54.471Z,98396.78
2022-09-12T17:11:31.613Z,98397.56
2022-09-12T17:14:04.838Z,98396.00
2022-09-12T17:16:34.574Z,98403.53
2022-09-12T17:19:01.584Z,98401.94
2022-09-12T17:21:31.537Z,98405.13
2022-09-12T17:23:59.098Z,98404.72
2022-09-12T17:26:26.676Z,98403.56
2022-09-12T17:28:53.708Z,98400.41
2022-09-12T17:31:20.658Z,98402.00
2022-09-12T17:33:47.919Z,98409.84
2022-09-12T17:36:17.671Z,98402.31
2022-09-12T17:38:45.983Z,98411.72
2022-09-12T17:41:18.443Z,98423.13
2022-09-12T17:43:52.164Z,98419.47
2022-09-12T17:46:20.689Z,98421.41
2022-09-12T17:48:57.289Z,98421.44
2022-09-12T17:51:28.830Z,98415.44
2022-09-12T17:54:06.612Z,98429.25
2022-09-12T17:56:35.749Z,98428.31
2022-09-12T17:59:03.381Z,98435.78
2022-09-12T18:01:49.853Z,98433.78
2022-09-12T18:04:17.673Z,98437.25
2022-09-12T18:06:50.773Z,98433.91
2022-09-12T18:09:24.813Z,98439.97
2022-09-12T18:11:52.976Z,98447.41
2022-09-12T18:14:21.019Z,98448.97
2022-09-12T18:16:48.800Z,98448.16
2022-09-12T18:19:16.352Z,98445.41
2022-09-12T18:21:43.294Z,98446.53
2022-09-12T18:24:11.295Z,98436.16
2022-09-12T18:26:38.582Z,98439.16
2022-09-12T18:29:06.348Z,98439.00
2022-09-12T18:31:33.194Z,98446.38
2022-09-12T18:34:00.982Z,98441.84
2022-09-12T18:36:29.947Z,98442.09
2022-09-12T18:39:00.699Z,98446.41
2022-09-12T18:41:28.828Z,98446.69
2022-09-12T18:43:58.730Z,98441.56
2022-09-12T18:46:28.413Z,98435.91
2022-09-12T18:49:03.109Z,98441.38
2022-09-12T18:51:34.748Z,98441.38
2022-09-12T18:54:13.412Z,98451.06
2022-09-12T18:56:43.971Z,98443.44
2022-09-12T18:59:12.787Z,98450.44
2022-09-12T19:01:40.222Z,98455.16
2022-09-12T19:04:09.993Z,98457.09
2022-09-12T19:06:44.123Z,98450.94
2022-09-12T19:09:13.930Z,98457.56
2022-09-12T19:11:49.500Z,98456.53
2022-09-12T19:14:22.988Z,98465.50
2022-09-12T19:16:51.903Z,98451.84
2022-09-12T19:19:18.983Z,98452.56
2022-09-12T19:21:46.168Z,98450.91
2022-09-12T19:24:14.328Z,98445.06
2022-09-12T19:26:41.888Z,98444.09
2022-09-12T19:29:46.035Z,98442.94
2022-09-12T19:32:12.807Z,98447.59
2022-09-12T19:34:39.616Z,98450.75
2022-09-12T19:37:06.441Z,98452.78
2022-09-12T19:39:33.581Z,98453.09
2022-09-12T19:42:00.353Z,98461.53
2022-09-12T19:44:29.230Z,98455.19
2022-09-12T19:46:56.001Z,98452.06
2022-09-12T19:49:22.798Z,98450.19
2022-09-12T19:51:49.690Z,98449.69
2022-09-12T19:54:16.410Z,98445.28
2022-09-12T19:56:43.463Z,98437.56
2022-09-12T19:59:10.513Z,98442.69
2022-09-12T20:01:37.643Z,98439.56
2022-09-12T20:04:05.491Z,98433.31
2022-09-12T20:06:32.442Z,98435.38
2022-09-12T20:08:59.949Z,98434.59
2022-09-12T20:11:26.909Z,98428.31
2022-09-12T20:13:53.914Z,98425.13
2022-09-12T20:16:29.041Z,98420.59
2022-09-12T20:19:00.740Z,98422.53
2022-09-12T20:21:32.946Z,98422.09
2022-09-12T20:24:09.673Z,98419.56
2022-09-12T20:26:36.967Z,98426.56
2022-09-12T20:29:05.386Z,98419.34
2022-09-12T20:31:33.309Z,98413.13
2022-09-12T20:34:00.300Z,98419.72
2022-09-12T20:36:27.439Z,98413.13
2022-09-12T20:38:59.195Z,98423.69
2022-09-12T20:41:29.831Z,98417.91
2022-09-12T20:43:57.374Z,98420.28
2022-09-12T20:46:26.629Z,98432.47
2022-09-12T20:48:54.161Z,98414.34
2022-09-12T20:51:22.114Z,98414.56
2022-09-12T20:53:57.620Z,98399.59
2022-09-12T20:56:26.749Z,98406.16
2022-09-12T20:58:55.650Z,98407.00
2022-09-12T21:01:23.720Z,98407.81
2022-09-12T21:03:51.245Z,98417.50
2022-09-12T21:06:19.651Z,98405.66
2022-09-12T21:08:48.758Z,98413.06
2022-09-12T21:11:17.638Z,98412.13
2022-09-12T21:13:44.588Z,98409.06
2022-09-12T21:16:18.337Z,98412.94
2022-09-12T21:18:46.318Z,98409.66
2022-09-12T21:21:15.255Z,98408.72
2022-09-12T21:23:42.141Z,98406.69
2022-09-12T21:26:09.342Z,98411.06
2022-09-12T21:28:36.448Z,98404.44
2022-09-12T21:31:03.779Z,98407.66
2022-09-12T21:33:30.793Z,98395.00
2022-09-12T21:36:03.756Z,98398.88
2022-09-12T21:38:31.338Z,98397.03
2022-09-12T21:41:09.309Z,98398.28
2022-09-12T21:43:37.658Z,98391.00
2022-09-12T21:46:06.172Z,98395.00
2022-09-12T21:48:34.245Z,98389.16
2022-09-12T21:51:02.256Z,98387.03
2022-09-12T21:53:29.092Z,98374.00
2022-09-12T21:56:05.823Z,98371.72
2022-09-12T21:58:32.680Z,98373.56
2022-09-12T22:01:00.829Z,98378.22
2022-09-12T22:03:29.210Z,98383.19
2022-09-12T22:06:05.527Z,98369.19
2022-09-12T22:08:35.067Z,98372.38
2022-09-12T22:11:07.804Z,98369.38
2022-09-12T22:13:36.560Z,98363.16
2022-09-12T22:16:03.855Z,98364.66
2022-09-12T22:18:34.097Z,98361.94
2022-09-12T22:21:15.780Z,98367.59
2022-09-12T22:24:01.519Z,98369.28
2022-09-12T22:26:31.996Z,98360.91
2022-09-12T22:28:58.751Z,98366.00
2022-09-12T22:31:26.948Z,98357.09
2022-09-12T22:33:59.655Z,98355.25
2022-09-12T22:36:30.999Z,98353.38
2022-09-12T22:38:59.356Z,98353.66
2022-09-12T22:41:26.399Z,98353.50
2022-09-12T22:43:53.234Z,98365.88
2022-09-12T22:46:20.174Z,98355.78
2022-09-12T22:48:47.029Z,98358.09
2022-09-12T22:51:13.758Z,98363.50
2022-09-12T22:53:43.663Z,98367.72
2022-09-12T22:56:10.627Z,98367.84
2022-09-12T22:58:37.504Z,98370.47
2022-09-12T23:01:06.276Z,98364.81
2022-09-12T23:03:34.218Z,98366.38
2022-09-12T23:06:01.076Z,98366.16
2022-09-12T23:08:29.450Z,98361.63
2022-09-12T23:11:14.149Z,98355.72
2022-09-12T23:13:47.083Z,98352.50
2022-09-12T23:16:21.727Z,98353.06
2022-09-12T23:18:49.498Z,98348.41
2022-09-12T23:21:19.888Z,98341.09
2022-09-12T23:23:46.944Z,98334.03
2022-09-12T23:26:17.222Z,98336.78
2022-09-12T23:28:53.841Z,98343.59
2022-09-12T23:31:22.983Z,98343.41
2022-09-12T23:33:52.835Z,98347.22
2022-09-12T23:36:19.717Z,98335.13
2022-09-12T23:38:47.259Z,98338.69
2022-09-12T23:41:16.958Z,98343.50
2022-09-12T23:43:45.449Z,98351.19
2022-09-12T23:46:14.151Z,98347.97
2022-09-12T23:48:42.590Z,98337.28
2022-09-12T23:51:11.050Z,98333.44
2022-09-12T23:53:38.534Z,98325.66
2022-09-12T23:56:06.265Z,98326.22
2022-09-12T23:58:33.492Z,98324.63
